Time;durP1;ratioP1;P1;durP2;ratioP2;P2;SDS_P1;SDS_P2;PMS_P1;PMS_P2;Temp;Humidity;BMP_temperature;BMP_pressure;BME280_temperature;BME280_humidity;BME280_pressure;Samples;Min_cycle;Max_cycle;Signal;HPM_P1;HPM_P2
2021/06/09 00:00:37;;;;;;;5.83;5.12;;;;;;;23.92;56.39;101090.38;1702484;82;21113;-49
2021/06/09 00:03:04;;;;;;;7.97;5.22;;;;;;;23.93;56.19;101096.05;1677686;84;21046;-49
2021/06/09 00:05:31;;;;;;;5.90;4.85;;;;;;;23.93;56.02;101089.41;1660620;85;21099;-49
2021/06/09 00:07:58;;;;;;;6.37;5.33;;;;;;;23.93;55.90;101086.75;1695940;82;21537;-49
2021/06/09 00:10:25;;;;;;;13.58;6.22;;;;;;;23.93;55.74;101089.41;1705473;82;21054;-50
2021/06/09 00:12:52;;;;;;;8.55;5.95;;;;;;;23.92;55.68;101087.72;1711465;83;21049;-50
2021/06/09 00:15:20;;;;;;;7.97;5.53;;;;;;;23.90;55.60;101085.66;1720568;82;21033;-49
2021/06/09 00:17:46;;;;;;;7.12;5.58;;;;;;;23.88;55.54;101086.25;1716465;82;20992;-48
2021/06/09 00:20:18;;;;;;;5.60;5.10;;;;;;;23.88;55.57;101084.06;1705523;82;21057;-49
2021/06/09 00:22:45;;;;;;;5.72;5.12;;;;;;;23.88;55.53;101088.05;1678952;84;21085;-49
2021/06/09 00:25:18;;;;;;;9.50;5.20;;;;;;;23.86;55.58;101082.84;1676713;83;21104;-48
2021/06/09 00:27:52;;;;;;;6.72;5.12;;;;;;;23.84;55.67;101083.44;1665224;84;21042;-50
2021/06/09 00:30:26;;;;;;;7.62;5.20;;;;;;;23.81;55.77;101084.97;1652964;85;21026;-49
2021/06/09 00:32:56;;;;;;;4.67;4.15;;;;;;;23.79;55.87;101085.56;1626204;87;21077;-49
2021/06/09 00:35:23;;;;;;;6.95;4.33;;;;;;;23.76;55.97;101080.45;1603818;87;21050;-49
2021/06/09 00:37:50;;;;;;;5.90;4.53;;;;;;;23.74;56.11;101071.73;1631133;87;21166;-50
2021/06/09 00:40:17;;;;;;;6.53;4.58;;;;;;;23.71;56.35;101073.30;1619522;87;21550;-49
2021/06/09 00:43:08;;;;;;;6.72;4.72;;;;;;;23.68;56.76;101072.18;1625796;87;21082;-50
2021/06/09 00:45:37;;;;;;;4.97;3.58;;;;;;;23.64;57.17;101064.05;1631294;87;21593;-49
2021/06/09 00:48:06;;;;;;;6.40;4.62;;;;;;;23.57;58.00;101064.14;1619984;87;21022;-49
2021/06/09 00:50:32;;;;;;;5.85;3.70;;;;;;;23.52;58.57;101064.06;1630586;87;21116;-49
2021/06/09 00:55:45;;;;;;;5.05;4.20;;;;;;;23.41;59.58;101067.50;1628392;87;21109;-49
2021/06/09 00:58:12;;;;;;;4.67;3.52;;;;;;;23.38;59.97;101060.59;1621024;87;21075;-48
2021/06/09 01:00:39;;;;;;;5.70;4.12;;;;;;;23.36;60.12;101063.84;1617257;87;21075;-49
2021/06/09 01:03:06;;;;;;;7.12;4.05;;;;;;;23.34;60.25;101062.23;1631916;87;21585;-49
2021/06/09 01:05:33;;;;;;;8.48;4.15;;;;;;;23.33;60.43;101064.51;1628277;87;21266;-49
2021/06/09 01:08:02;;;;;;;5.55;4.08;;;;;;;23.34;60.46;101061.77;1626085;87;21752;-48
2021/06/09 01:10:29;;;;;;;4.90;3.87;;;;;;;23.35;60.56;101062.59;1627158;87;21078;-49
2021/06/09 01:12:57;;;;;;;4.95;3.92;;;;;;;;;;1621863;87;21109;-49
2021/06/09 01:15:25;;;;;;;6.80;3.87;;;;;;;23.36;60.26;101063.84;1624915;87;21030;-49
2021/06/09 01:17:51;;;;;;;6.65;4.40;;;;;;;23.35;60.22;101059.94;1614855;87;21065;-49
2021/06/09 01:20:21;;;;;;;7.85;3.72;;;;;;;23.37;60.15;101060.67;1633315;86;21063;-49
2021/06/09 01:22:47;;;;;;;5.80;4.17;;;;;;;23.37;59.98;101059.35;1635855;87;21071;-49
2021/06/09 01:25:14;;;;;;;4.10;3.70;;;;;;;23.38;60.12;101067.70;1635148;86;21138;-51
2021/06/09 01:27:41;;;;;;;4.78;4.00;;;;;;;23.39;60.27;101076.02;1650702;86;21042;-49
2021/06/09 01:30:10;;;;;;;7.12;4.17;;;;;;;23.39;60.37;101074.70;1660224;86;20998;-49
2021/06/09 01:32:37;;;;;;;4.10;3.70;;;;;;;23.37;60.13;101071.30;1653456;86;21533;-48
2021/06/09 01:35:06;;;;;;;5.70;4.22;;;;;;;23.35;60.29;101074.54;1667355;83;21029;-49
2021/06/09 01:37:33;;;;;;;5.75;4.17;;;;;;;23.37;60.29;101073.95;1707415;83;21541;-49
2021/06/09 01:39:59;;;;;;;5.45;4.00;;;;;;;23.40;60.22;101080.40;1706613;82;21048;-49
2021/06/09 01:42:29;;;;;;;5.65;4.12;;;;;;;23.41;60.17;101080.78;1702401;82;21103;-49
2021/06/09 01:44:56;;;;;;;6.45;4.33;;;;;;;23.41;60.24;101082.11;1716808;82;21492;-49
2021/06/09 01:47:24;;;;;;;4.97;3.55;;;;;;;23.42;60.26;101079.81;1699038;83;21542;-49
2021/06/09 01:49:51;;;;;;;4.72;3.80;;;;;;;23.37;59.92;101077.47;1710321;82;21048;-51
2021/06/09 01:52:18;;;;;;;5.70;3.95;;;;;;;23.31;59.92;101082.31;1695461;82;21109;-49
2021/06/09 01:54:45;;;;;;;6.78;4.33;;;;;;;23.29;59.95;101081.58;1699372;82;21098;-48
2021/06/09 01:57:13;;;;;;;4.60;4.10;;;;;;;23.25;60.12;101080.95;1707646;83;21031;-49
2021/06/09 01:59:41;;;;;;;4.97;4.42;;;;;;;23.22;60.18;101085.63;1718546;82;21584;-49
2021/06/09 02:02:07;;;;;;;6.75;4.08;;;;;;;23.20;60.20;101080.43;1698592;83;21032;-49
2021/06/09 02:04:34;;;;;;;7.47;4.10;;;;;;;23.20;60.43;101086.21;1685379;83;21122;-50
2021/06/09 02:07:01;;;;;;;7.15;4.25;;;;;;;23.20;60.44;101083.55;1707832;82;21089;-48
2021/06/09 02:09:28;;;;;;;7.33;4.53;;;;;;;23.19;60.49;101085.82;1699057;83;21470;-49
2021/06/09 02:11:55;;;;;;;8.75;4.87;;;;;;;23.18;60.48;101086.80;1701676;82;21044;-50
2021/06/09 02:14:21;;;;;;;5.80;4.42;;;;;;;23.16;60.57;101088.20;1698307;82;21508;-49
2021/06/09 02:16:50;;;;;;;5.70;3.95;;;;;;;23.14;60.58;101097.25;1694910;82;21038;-49
2021/06/09 02:19:17;;;;;;;5.42;3.90;;;;;;;23.11;60.43;101099.63;1668839;85;21548;-50
2021/06/09 02:21:44;;;;;;;8.00;4.70;;;;;;;23.07;60.54;101093.30;1722643;83;21514;-49
2021/06/09 02:24:11;;;;;;;4.80;4.33;;;;;;;23.03;60.76;101092.67;1722278;83;21038;-49
2021/06/09 02:26:39;;;;;;;7.78;4.70;;;;;;;23.03;60.95;101094.47;1705851;82;21544;-49
2021/06/09 02:29:07;;;;;;;5.58;4.47;;;;;;;23.01;60.86;101093.72;1705510;82;21001;-49
2021/06/09 02:31:36;;;;;;;10.18;4.75;;;;;;;23.03;61.05;101098.45;1707670;82;21046;-49
2021/06/09 02:34:03;;;;;;;5.45;4.28;;;;;;;23.00;61.13;101098.67;1695779;83;21018;-50
2021/06/09 02:36:29;;;;;;;8.80;4.25;;;;;;;22.99;61.13;101099.61;1709076;82;21026;-49
2021/06/09 02:38:57;;;;;;;6.83;4.92;;;;;;;22.98;61.22;101102.73;1717363;83;21010;-50
2021/06/09 02:41:24;;;;;;;7.92;5.08;;;;;;;22.97;61.33;101100.19;1697140;82;21079;-50
2021/06/09 02:43:53;;;;;;;5.53;4.70;;;;;;;22.98;61.43;101105.89;1718083;82;21032;-49
2021/06/09 02:46:28;;;;;;;8.83;4.37;;;;;;;22.99;61.41;101107.57;1723965;82;21498;-49
2021/06/09 02:49:05;;;;;;;7.00;4.08;;;;;;;23.03;61.34;101105.08;1650789;85;21762;-49
2021/06/09 02:51:46;;;;;;;5.92;4.12;;;;;;;23.03;61.23;101111.72;1629818;86;21143;-49
2021/06/09 02:54:27;;;;;;;6.20;4.05;;;;;;;23.04;61.20;101112.11;1659783;84;21052;-49
2021/06/09 02:57:27;;;;;;;4.90;4.40;;;;;;;23.05;61.13;101105.83;1643213;86;21115;-49
2021/06/09 03:00:29;;;;;;;4.53;4.10;;;;;;;23.06;61.06;101111.02;1633561;86;21005;-50
2021/06/09 03:03:22;;;;;;;10.25;4.83;;;;;;;23.08;60.95;101104.31;1553165;90;21089;-49
2021/06/09 03:06:16;;;;;;;6.15;4.75;;;;;;;23.09;60.95;101111.30;1517854;93;21180;-49
2021/06/09 03:09:09;;;;;;;6.42;4.75;;;;;;;23.09;61.02;101111.30;1509350;93;21112;-49
2021/06/09 03:12:11;;;;;;;6.65;4.50;;;;;;;23.08;61.01;101114.42;1459584;96;21182;-49
2021/06/09 03:17:36;;;;;;;6.15;4.37;;;;;;;23.09;60.76;101109.97;1402492;100;21200;-49
2021/06/09 03:20:23;;;;;;;5.62;4.40;;;;;;;23.11;60.70;101110.72;1415547;100;21151;-49
2021/06/09 03:23:00;;;;;;;7.58;4.20;;;;;;;23.13;60.55;101106.16;1407522;100;21671;-49
2021/06/09 03:25:32;;;;;;;7.10;4.78;;;;;;;23.16;60.43;101101.98;1414635;100;21127;-50
2021/06/09 03:28:25;;;;;;;6.28;3.87;;;;;;;23.17;60.42;101106.31;1394595;102;21636;-49
2021/06/09 03:30:56;;;;;;;4.42;3.95;;;;;;;23.19;60.29;101109.72;1405331;102;21239;-50
2021/06/09 03:33:24;;;;;;;5.72;4.75;;;;;;;23.19;60.37;101115.02;1395724;101;21628;-50
2021/06/09 03:35:56;;;;;;;5.75;3.95;;;;;;;23.19;60.48;101107.06;1410230;100;21091;-50
2021/06/09 03:38:34;;;;;;;8.40;4.10;;;;;;;23.26;60.52;101111.01;1408767;101;21079;-49
2021/06/09 03:41:05;;;;;;;6.28;3.98;;;;;;;23.50;60.20;101110.67;1409876;101;21683;-50
2021/06/09 03:43:34;;;;;;;5.37;3.60;;;;;;;23.91;59.27;101111.26;1456763;97;21115;-49
2021/06/09 03:46:01;;;;;;;4.12;3.45;;;;;;;24.46;58.14;101105.97;1476748;95;21121;-49
2021/06/09 03:48:29;;;;;;;8.78;4.42;;;;;;;25.73;54.63;101105.89;1451091;96;21609;-50
2021/06/09 03:50:57;;;;;;;10.75;3.98;;;;;;;25.73;54.63;101105.89;1489894;96;21112;-50
2021/06/09 03:53:24;;;;;;;4.37;3.52;;;;;;;26.30;52.97;101104.86;1468943;96;21136;-50
2021/06/09 03:55:52;;;;;;;8.98;3.80;;;;;;;26.90;51.56;101105.16;1485111;96;21098;-50
2021/06/09 03:58:19;;;;;;;8.65;4.72;;;;;;;27.54;50.27;101099.67;1487290;93;21236;-49
2021/06/09 04:00:46;;;;;;;6.58;4.03;;;;;;;28.11;48.25;101107.94;1545065;92;21076;-50
2021/06/09 04:03:13;;;;;;;5.20;3.50;;;;;;;28.37;47.21;101101.12;1545240;92;21079;-50
2021/06/09 04:05:41;;;;;;;4.42;3.55;;;;;;;28.32;46.77;101099.81;1590414;87;21137;-50
2021/06/09 04:08:11;;;;;;;4.20;3.45;;;;;;;28.07;46.89;101106.53;1612578;87;21106;-49
2021/06/09 04:10:38;;;;;;;5.10;3.52;;;;;;;27.70;47.15;101110.75;1638961;82;21025;-50
2021/06/09 04:13:05;;;;;;;5.55;3.92;;;;;;;27.25;47.89;101112.36;1708888;82;21514;-50
2021/06/09 04:15:32;;;;;;;5.42;3.83;;;;;;;26.87;48.75;101106.77;1700618;82;21112;-49
2021/06/09 04:17:58;;;;;;;6.58;3.50;;;;;;;26.58;49.20;101104.30;1700709;82;21010;-50
2021/06/09 04:20:28;;;;;;;6.47;3.52;;;;;;;26.27;49.78;101110.45;1702023;83;21545;-50
2021/06/09 04:22:55;;;;;;;5.30;3.70;;;;;;;26.01;50.39;101111.69;1697190;82;21015;-50
2021/06/09 04:25:22;;;;;;;7.35;3.83;;;;;;;25.80;50.80;101110.25;1699284;82;21525;-48
2021/06/09 04:27:48;;;;;;;6.05;3.83;;;;;;;25.55;51.52;101112.67;1695138;82;21094;-50
2021/06/09 04:30:21;;;;;;;3.87;3.47;;;;;;;25.42;51.99;101121.25;1715230;82;21093;-50
2021/06/09 04:32:51;;;;;;;4.78;3.72;;;;;;;25.26;52.39;101116.71;1704083;82;21014;-51
2021/06/09 04:35:20;;;;;;;4.92;4.00;;;;;;;25.02;53.43;101099.92;1711918;82;21552;-50
2021/06/09 04:37:47;;;;;;;22.98;5.00;;;;;;;25.02;53.43;101099.92;1708030;82;21025;-49
2021/06/09 04:40:16;;;;;;;8.35;4.10;;;;;;;24.98;53.50;101105.12;1710486;82;21511;-49
2021/06/09 04:42:44;;;;;;;7.72;3.67;;;;;;;24.94;53.60;101107.65;1714462;83;21022;-50
2021/06/09 04:45:12;;;;;;;5.67;3.52;;;;;;;24.87;53.91;101111.75;1713675;82;20986;-50
2021/06/09 04:47:39;;;;;;;8.43;3.40;;;;;;;24.82;53.94;101116.56;1671145;85;21023;-50
2021/06/09 04:50:07;;;;;;;5.20;3.60;;;;;;;24.75;54.27;101116.16;1676645;82;21507;-50
2021/06/09 04:52:34;;;;;;;8.70;4.05;;;;;;;24.69;54.55;101113.11;1706448;82;21080;-49
2021/06/09 04:55:00;;;;;;;7.65;4.12;;;;;;;24.63;54.83;101106.41;1706447;81;21018;-50
2021/06/09 04:57:27;;;;;;;4.92;3.42;;;;;;;24.59;55.03;101104.94;1696227;82;21010;-49
2021/06/09 04:59:53;;;;;;;4.47;3.90;;;;;;;24.58;55.05;101109.91;1700478;82;21019;-49
2021/06/09 05:02:20;;;;;;;7.00;3.50;;;;;;;24.63;55.15;101118.86;1719971;83;21034;-50
2021/06/09 05:04:47;;;;;;;4.58;3.47;;;;;;;24.71;54.79;101112.51;1709645;83;21027;-49
2021/06/09 05:07:14;;;;;;;4.95;3.25;;;;;;;24.79;54.52;101115.48;1715140;82;21098;-49
2021/06/09 05:09:41;;;;;;;6.70;3.42;;;;;;;24.85;54.16;101111.02;1670633;85;21102;-49
2021/06/09 05:12:16;;;;;;;5.10;3.37;;;;;;;24.90;53.95;101111.50;1640738;85;21068;-49
2021/06/09 05:14:53;;;;;;;5.35;3.22;;;;;;;25.02;53.62;101115.89;1716033;83;21014;-49
2021/06/09 05:17:24;;;;;;;6.25;3.35;;;;;;;25.13;53.15;101110.61;1726014;82;21566;-50
2021/06/09 05:19:53;;;;;;;3.45;3.10;;;;;;;25.23;52.71;101111.60;1661787;84;21045;-50
2021/06/09 05:22:32;;;;;;;4.58;3.42;;;;;;;25.35;52.39;101106.66;1643612;85;21067;-50
2021/06/09 05:25:03;;;;;;;6.97;3.20;;;;;;;25.47;52.25;101109.73;1607075;88;21078;-49
2021/06/09 05:27:31;;;;;;;5.45;3.45;;;;;;;25.57;51.69;101116.06;1614548;87;21066;-50
2021/06/09 05:29:57;;;;;;;5.58;3.45;;;;;;;25.66;51.57;101116.66;1589720;87;21083;-50
2021/06/09 05:32:26;;;;;;;4.50;3.20;;;;;;;25.71;51.44;101118.48;1607445;87;21064;-50
2021/06/09 05:34:53;;;;;;;7.12;3.58;;;;;;;25.74;50.93;101114.23;1614847;87;21080;-49
2021/06/09 05:37:19;;;;;;;6.60;3.22;;;;;;;25.80;50.78;101115.08;1616197;86;21551;-50
2021/06/09 05:39:46;;;;;;;5.87;3.37;;;;;;;25.84;50.60;101127.19;1606460;88;21056;-50
2021/06/09 05:42:14;;;;;;;3.55;3.10;;;;;;;25.89;50.80;101124.16;1606154;87;21569;-49
2021/06/09 05:44:44;;;;;;;5.75;3.52;;;;;;;25.95;50.11;101132.16;1613295;87;21540;-50
2021/06/09 05:47:11;;;;;;;4.78;3.08;;;;;;;25.97;50.08;101123.55;1547071;91;21156;-50
2021/06/09 05:49:37;;;;;;;4.10;3.12;;;;;;;26.01;50.06;101125.03;1547422;91;21109;-49
2021/06/09 05:52:05;;;;;;;4.55;3.33;;;;;;;26.06;49.45;101121.01;1547516;92;21129;-49
2021/06/09 05:54:37;;;;;;;6.10;3.15;;;;;;;26.13;49.29;101120.07;1535414;91;21055;-50
2021/06/09 05:57:06;;;;;;;4.83;3.55;;;;;;;26.23;49.55;101122.35;1542899;92;21560;-51
2021/06/09 05:59:34;;;;;;;5.67;3.87;;;;;;;26.23;49.55;101122.35;1542256;92;21576;-50
2021/06/09 06:02:03;;;;;;;4.42;2.95;;;;;;;26.32;49.11;101124.25;1543982;91;21106;-49
2021/06/09 06:04:31;;;;;;;5.10;3.22;;;;;;;26.40;48.91;101127.14;1550352;91;21567;-49
2021/06/09 06:06:57;;;;;;;4.22;3.20;;;;;;;26.50;48.97;101128.11;1548053;91;21136;-49
2021/06/09 06:09:25;;;;;;;7.28;3.37;;;;;;;26.58;48.33;101125.66;1541958;92;21181;-50
2021/06/09 06:11:52;;;;;;;10.32;5.15;;;;;;;26.64;48.08;101133.16;1543875;92;21582;-50
2021/06/09 06:14:20;;;;;;;7.35;3.95;;;;;;;26.73;47.88;101129.73;1545756;92;21147;-50
2021/06/09 06:16:54;;;;;;;3.87;3.27;;;;;;;26.90;47.87;101134.53;1581891;88;21574;-49
2021/06/09 06:19:21;;;;;;;3.70;3.25;;;;;;;27.15;47.48;101126.16;1609073;88;21123;-50
2021/06/09 06:21:48;;;;;;;5.10;3.20;;;;;;;27.43;46.89;101124.66;1602966;89;21083;-49
2021/06/09 06:24:18;;;;;;;6.58;3.45;;;;;;;27.66;46.25;101126.67;1598994;88;21066;-50
2021/06/09 06:26:46;;;;;;;6.60;3.80;;;;;;;27.78;46.11;101130.98;1595984;89;21597;-49
2021/06/09 06:29:13;;;;;;;6.33;3.80;;;;;;;27.83;45.92;101119.38;1594612;89;21085;-50
2021/06/09 06:31:40;;;;;;;5.30;3.80;;;;;;;27.83;45.60;101117.55;1594269;89;21556;-49
2021/06/09 06:34:07;;;;;;;6.67;3.47;;;;;;;27.76;45.81;101122.25;1580621;89;21201;-50
2021/06/09 06:36:35;;;;;;;4.17;3.65;;;;;;;27.66;45.88;101117.31;1589289;89;21054;-50
2021/06/09 06:39:05;;;;;;;9.23;3.02;;;;;;;27.58;46.07;101111.80;1550648;89;21065;-49
2021/06/09 06:41:32;;;;;;;6.37;3.17;;;;;;;27.48;46.05;101114.91;1591774;89;21107;-49
2021/06/09 06:44:00;;;;;;;7.47;2.98;;;;;;;27.39;46.69;101110.72;1636082;83;21542;-49
2021/06/09 06:46:28;;;;;;;7.15;3.12;;;;;;;27.34;46.45;101116.11;1679417;83;21645;-49
2021/06/09 06:48:56;;;;;;;4.08;3.40;;;;;;;27.28;46.81;101118.80;1683880;83;21157;-49
2021/06/09 06:51:24;;;;;;;4.25;3.33;;;;;;;27.23;47.08;101118.33;1689266;83;21039;-49
2021/06/09 06:53:54;;;;;;;5.42;3.45;;;;;;;27.17;47.34;101122.86;1707864;83;21577;-49
2021/06/09 06:56:20;;;;;;;6.60;3.50;;;;;;;27.14;47.16;101117.77;1692316;82;21116;-49
2021/06/09 06:58:50;;;;;;;4.45;3.37;;;;;;;27.10;47.63;101119.00;1666229;83;21115;-49
2021/06/09 07:01:29;;;;;;;5.10;3.22;;;;;;;27.11;47.87;101121.19;1690319;83;21028;-49
2021/06/09 07:03:56;;;;;;;9.70;3.65;;;;;;;27.11;48.31;101127.39;1701020;82;21052;-50
2021/06/09 07:06:23;;;;;;;5.60;3.55;;;;;;;27.29;48.24;101127.16;1700584;82;21106;-49
2021/06/09 07:08:50;;;;;;;4.92;3.17;;;;;;;27.48;47.64;101126.94;1697057;83;21579;-49
2021/06/09 07:11:17;;;;;;;6.08;3.20;;;;;;;27.66;47.49;101125.34;1700485;83;21151;-49
2021/06/09 07:13:45;;;;;;;6.40;3.58;;;;;;;27.79;46.99;101125.97;1689567;83;21091;-49
2021/06/09 07:16:12;;;;;;;4.87;3.60;;;;;;;27.90;46.50;101128.56;1694170;83;21077;-49
2021/06/09 07:18:45;;;;;;;8.23;3.87;;;;;;;27.94;46.44;101125.49;1686352;83;21113;-49
2021/06/09 07:21:16;;;;;;;9.40;3.75;;;;;;;28.02;46.57;101124.83;1644880;84;21597;-49
2021/06/09 07:23:43;;;;;;;11.45;3.42;;;;;;;28.13;46.43;101122.06;1702020;83;20991;-49
2021/06/09 07:26:11;;;;;;;8.00;3.50;;;;;;;28.14;46.24;101122.41;1709297;83;21032;-49
2021/06/09 07:28:57;;;;;;;3.20;2.80;;;;;;;28.19;45.95;101129.02;1710205;83;21060;-49
2021/06/09 07:31:33;;;;;;;4.37;3.27;;;;;;;28.21;45.80;101124.90;1703145;82;21060;-49
2021/06/09 07:33:59;;;;;;;7.08;3.17;;;;;;;28.23;45.61;101131.44;1701480;83;21075;-50
2021/06/09 07:36:43;;;;;;;6.50;3.55;;;;;;;28.24;45.67;101135.80;1702725;83;21028;-49
2021/06/09 07:39:24;;;;;;;4.75;3.17;;;;;;;28.24;45.67;101140.66;1705966;82;21044;-49
2021/06/09 07:41:51;;;;;;;3.20;2.92;;;;;;;28.23;45.99;101134.97;1703332;82;21069;-50
2021/06/09 07:44:18;;;;;;;7.00;3.40;;;;;;;28.19;45.98;101137.57;1704097;83;21050;-49
2021/06/09 07:46:45;;;;;;;5.45;3.15;;;;;;;28.14;45.75;101134.44;1683800;83;21034;-49
2021/06/09 07:49:12;;;;;;;5.33;3.02;;;;;;;28.11;45.84;101135.55;1706912;82;21018;-50
2021/06/09 07:51:43;;;;;;;5.35;3.12;;;;;;;28.09;45.58;101140.20;1669264;83;21090;-49
2021/06/09 07:54:11;;;;;;;5.47;3.08;;;;;;;28.07;45.71;101135.95;1683696;83;21047;-49
2021/06/09 07:56:39;;;;;;;5.55;3.40;;;;;;;28.05;45.48;101143.27;1699181;83;21049;-49
2021/06/09 07:59:07;;;;;;;3.90;3.08;;;;;;;27.99;45.67;101136.64;1701274;83;21526;-49
2021/06/09 08:01:35;;;;;;;5.35;3.47;;;;;;;27.95;45.46;101140.54;1696050;83;21016;-49
2021/06/09 08:04:03;;;;;;;8.30;3.27;;;;;;;27.92;45.37;101140.83;1660399;85;21056;-50
2021/06/09 08:06:30;;;;;;;4.83;2.95;;;;;;;27.90;45.68;101136.59;1682527;83;21039;-50
2021/06/09 08:08:57;;;;;;;7.92;3.17;;;;;;;27.90;45.45;101141.94;1691160;83;21006;-49
2021/06/09 08:11:23;;;;;;;4.05;2.85;;;;;;;27.90;45.45;101138.75;1692494;83;21021;-50
2021/06/09 08:13:51;;;;;;;4.97;2.77;;;;;;;27.92;45.50;101138.16;1699462;83;21044;-49
2021/06/09 08:16:19;;;;;;;10.03;4.45;;;;;;;27.93;45.92;101137.64;1684274;83;21089;-49
2021/06/09 08:18:46;;;;;;;6.85;3.60;;;;;;;27.93;45.84;101139.83;1705817;82;21034;-50
2021/06/09 08:21:19;;;;;;;5.78;3.47;;;;;;;27.92;45.63;101133.28;1717826;83;21013;-49
2021/06/09 08:23:49;;;;;;;5.62;3.47;;;;;;;27.90;45.72;101144.61;1718461;82;21036;-49
2021/06/09 08:26:18;;;;;;;5.33;3.22;;;;;;;27.86;46.10;101152.55;1670674;85;21081;-49
2021/06/09 08:28:46;;;;;;;4.70;3.47;;;;;;;27.85;46.20;101152.17;1699959;82;21700;-49
2021/06/09 08:31:18;;;;;;;7.90;3.72;;;;;;;27.86;46.11;101144.52;1722636;82;20993;-49
2021/06/09 08:33:45;;;;;;;4.70;3.22;;;;;;;27.88;46.10;101142.56;1715353;81;21019;-49
2021/06/09 08:38:43;;;;;;;3.95;2.98;;;;;;;27.93;46.66;101147.00;1637591;86;21537;-50
2021/06/09 08:41:11;;;;;;;4.95;3.25;;;;;;;27.97;46.10;101144.44;1599464;88;21577;-49
2021/06/09 08:43:41;;;;;;;8.18;3.05;;;;;;;27.99;45.64;101149.16;1643575;86;21161;-49
2021/06/09 08:46:09;;;;;;;3.92;3.15;;;;;;;28.01;45.68;101145.37;1645950;85;21093;-49
2021/06/09 08:48:37;;;;;;;6.10;3.33;;;;;;;28.05;45.88;101151.30;1615629;88;21080;-50
2021/06/09 08:51:08;;;;;;;4.92;3.47;;;;;;;28.06;45.97;101158.36;1651726;86;21088;-49
2021/06/09 08:53:40;;;;;;;7.95;3.67;;;;;;;28.06;45.34;101161.03;1634320;87;21063;-49
2021/06/09 08:56:07;;;;;;;4.72;3.37;;;;;;;28.05;45.66;101159.33;1630361;86;21047;-49
2021/06/09 08:58:36;;;;;;;6.33;3.12;;;;;;;28.05;45.68;101152.64;1638948;86;21070;-49
2021/06/09 09:01:04;;;;;;;4.92;3.15;;;;;;;28.08;45.19;101159.06;1625083;87;21110;-51
2021/06/09 09:03:31;;;;;;;3.45;2.90;;;;;;;28.08;45.31;101150.56;1638434;86;21057;-49
2021/06/09 09:05:58;;;;;;;6.00;3.33;;;;;;;28.10;45.13;101154.42;1657460;86;21131;-49
2021/06/09 09:08:24;;;;;;;7.00;3.67;;;;;;;28.12;45.23;101152.46;1629014;85;21068;-49
2021/06/09 09:10:52;;;;;;;5.97;3.02;;;;;;;28.15;45.20;101152.20;1646435;86;21127;-49
2021/06/09 09:13:21;;;;;;;5.80;3.12;;;;;;;28.17;45.38;101156.41;1651784;86;21727;-49
2021/06/09 09:15:48;;;;;;;4.55;3.10;;;;;;;28.21;45.12;101153.48;1638111;86;21019;-49
2021/06/09 09:18:14;;;;;;;4.45;3.42;;;;;;;28.23;44.90;101155.53;1642220;86;21043;-49
2021/06/09 09:20:46;;;;;;;7.00;2.90;;;;;;;28.25;45.50;101156.23;1625379;87;21537;-49
2021/06/09 09:23:29;;;;;;;5.17;3.02;;;;;;;28.28;45.42;101152.78;1647126;86;21074;-49
2021/06/09 09:25:57;;;;;;;4.95;2.92;;;;;;;28.32;45.29;101154.20;1641459;86;21165;-50
2021/06/09 09:28:30;;;;;;;5.03;3.25;;;;;;;28.36;45.04;101146.25;1622199;87;21071;-49
2021/06/09 09:31:11;;;;;;;3.45;3.10;;;;;;;28.41;45.12;101142.69;1625875;86;21116;-49
2021/06/09 09:33:39;;;;;;;5.58;2.92;;;;;;;28.46;44.87;101145.77;1631490;86;21097;-49
2021/06/09 09:36:30;;;;;;;3.05;2.80;;;;;;;28.48;44.70;101142.47;1636085;86;21136;-49
2021/06/09 09:38:59;;;;;;;5.28;2.83;;;;;;;28.55;44.30;101144.10;1625116;86;21585;-49
2021/06/09 09:41:30;;;;;;;4.05;2.83;;;;;;;28.60;44.38;101137.88;1639446;85;21059;-50
2021/06/09 09:44:02;;;;;;;5.75;3.15;;;;;;;28.62;43.89;101144.80;1680046;83;21564;-50
2021/06/09 09:46:35;;;;;;;4.08;2.77;;;;;;;28.61;43.53;101141.75;1644217;85;21035;-49
2021/06/09 09:49:13;;;;;;;5.45;3.15;;;;;;;28.67;43.50;101141.19;1685794;83;21010;-51
2021/06/09 09:51:54;;;;;;;5.05;3.37;;;;;;;28.70;43.85;101135.57;1669381;85;21621;-49
2021/06/09 09:54:37;;;;;;;4.70;3.12;;;;;;;28.75;43.57;101135.98;1644493;85;21095;-49
2021/06/09 09:57:11;;;;;;;5.60;3.37;;;;;;;28.79;43.13;101129.35;1696873;82;21038;-51
2021/06/09 09:59:38;;;;;;;7.58;3.25;;;;;;;28.85;42.93;101134.14;1708041;83;20983;-49
2021/06/09 10:02:15;;;;;;;5.70;3.45;;;;;;;28.89;42.62;101128.03;1676826;84;21814;-49
2021/06/09 10:04:49;;;;;;;6.30;3.17;;;;;;;28.92;42.26;101127.25;1679246;83;21037;-50
2021/06/09 10:07:11;;;;;;;6.85;3.10;;;;;;;28.94;42.26;101123.93;1679718;83;21014;-49
2021/06/09 10:09:44;;;;;;;4.10;2.80;;;;;;;28.94;42.39;101122.59;1706108;83;21078;-49
2021/06/09 10:12:13;;;;;;;3.27;2.98;;;;;;;28.98;42.23;101115.96;1714817;82;21537;-49
2021/06/09 10:14:50;;;;;;;3.65;2.77;;;;;;;29.02;41.69;101114.34;1697290;82;21006;-50
2021/06/09 10:17:21;;;;;;;4.15;3.27;;;;;;;29.07;41.46;101110.73;1658825;86;21008;-49
2021/06/09 10:19:56;;;;;;;3.13;2.80;;;;;;;29.12;41.70;101114.66;1591668;89;21473;-49
2021/06/09 10:22:32;;;;;;;5.95;2.90;;;;;;;29.18;41.74;101110.61;1651976;87;21052;-50
2021/06/09 10:25:02;;;;;;;6.60;3.05;;;;;;;29.18;41.85;101115.98;1569687;89;21060;-49
2021/06/09 10:27:38;;;;;;;2.58;2.37;;;;;;;29.24;41.02;101106.02;1597576;89;21094;-49
2021/06/09 10:30:22;;;;;;;2.80;2.45;;;;;;;29.28;39.96;101103.40;1580684;90;21537;-48
2021/06/09 10:33:00;;;;;;;4.10;2.83;;;;;;;29.29;39.72;101097.88;1586200;89;21595;-49
2021/06/09 10:35:38;;;;;;;3.55;2.42;;;;;;;29.32;39.06;101092.73;1581536;90;21103;-49
2021/06/09 10:38:06;;;;;;;4.30;2.37;;;;;;;29.38;38.85;101094.83;1536939;93;21056;-49
2021/06/09 10:40:34;;;;;;;2.22;2.02;;;;;;;29.38;39.39;101088.13;1533591;93;21171;-48
2021/06/09 10:43:05;;;;;;;6.10;2.30;;;;;;;29.38;39.96;101090.81;1533424;93;21068;-48
2021/06/09 10:45:33;;;;;;;3.20;2.40;;;;;;;29.39;40.25;101089.80;1530471;93;21081;-48
2021/06/09 10:50:28;;;;;;;2.65;2.35;;;;;;;29.44;39.79;101082.18;1533359;93;21046;-48
2021/06/09 10:52:55;;;;;;;3.15;2.72;;;;;;;29.46;39.64;101090.44;1532933;93;21136;-48
2021/06/09 10:55:22;;;;;;;3.98;2.67;;;;;;;29.45;39.04;101085.23;1524391;93;21082;-48
2021/06/09 10:57:49;;;;;;;2.60;2.40;;;;;;;29.46;39.03;101086.41;1522387;92;21599;-48
2021/06/09 11:00:17;;;;;;;4.47;2.10;;;;;;;29.49;39.11;101085.28;1528788;93;21111;-49
2021/06/09 11:02:44;;;;;;;9.18;2.47;;;;;;;29.54;39.55;101080.30;1528679;93;21541;-49
2021/06/09 11:05:12;;;;;;;3.15;2.22;;;;;;;29.61;39.46;101077.40;1521346;93;21181;-49
2021/06/09 11:07:42;;;;;;;2.80;2.33;;;;;;;29.67;38.97;101080.83;1512488;93;21113;-49
2021/06/09 11:10:19;;;;;;;4.10;2.52;;;;;;;29.74;40.76;101077.42;1491793;96;21135;-48
2021/06/09 11:12:49;;;;;;;3.65;2.92;;;;;;;29.81;42.00;101073.66;1489803;96;21136;-47
2021/06/09 11:15:19;;;;;;;3.83;2.60;;;;;;;29.83;42.58;101073.02;1490224;95;21074;-47
2021/06/09 11:17:53;;;;;;;4.05;2.45;;;;;;;29.84;42.29;101061.30;1490579;95;21218;-47
2021/06/09 11:20:25;;;;;;;2.60;2.40;;;;;;;29.84;41.91;101061.30;1428296;99;21100;-47
2021/06/09 11:22:57;;;;;;;2.58;2.37;;;;;;;29.84;42.38;101060.45;1471061;97;21089;-47
2021/06/09 11:25:43;;;;;;;4.60;2.40;;;;;;;29.82;42.35;101060.58;1486682;95;21089;-47
2021/06/09 11:28:12;;;;;;;3.08;2.60;;;;;;;29.80;42.36;101058.55;1478521;96;21098;-47
2021/06/09 11:30:45;;;;;;;3.70;2.55;;;;;;;29.80;42.90;101055.04;1475223;96;21101;-48
2021/06/09 11:33:44;;;;;;;4.10;2.42;;;;;;;29.76;43.30;101055.81;1473656;97;21307;-47
2021/06/09 11:36:21;;;;;;;3.10;2.60;;;;;;;29.74;43.50;101061.82;1501989;95;21101;-47
2021/06/09 11:38:53;;;;;;;3.45;2.30;;;;;;;29.71;43.28;101058.08;1512096;94;21567;-47
2021/06/09 11:41:29;;;;;;;2.40;2.20;;;;;;;29.66;42.85;101052.30;1525482;93;21111;-47
2021/06/09 11:43:57;;;;;;;3.08;2.40;;;;;;;29.61;43.09;101050.58;1514807;93;21082;-47
2021/06/09 11:46:37;;;;;;;4.72;2.62;;;;;;;29.58;43.09;101048.18;1550890;91;21104;-47
2021/06/09 11:49:13;;;;;;;3.33;2.52;;;;;;;29.57;43.06;101043.83;1523283;93;21152;-49